createdAt,value
2018-01-28T00:00:22.440Z,5.10
2018-01-28T00:01:22.347Z,5.20
2018-01-28T00:02:22.244Z,4.80
2018-01-28T00:03:22.180Z,5.00
2018-01-28T00:04:22.087Z,5.10
2018-01-28T00:05:22.165Z,5.10
2018-01-28T00:06:21.952Z,4.80
2018-01-28T00:07:21.870Z,5.30
2018-01-28T00:08:21.775Z,5.50
2018-01-28T00:09:21.697Z,5.90
2018-01-28T00:10:21.598Z,5.30
2018-01-28T00:11:21.552Z,5.00
2018-01-28T00:12:21.445Z,5.20
2018-01-28T00:13:21.380Z,5.20
2018-01-28T00:14:21.273Z,4.70
2018-01-28T00:15:21.203Z,4.60
2018-01-28T00:16:21.130Z,5.30
2018-01-28T00:17:21.047Z,5.30
2018-01-28T00:18:20.952Z,5.30
2018-01-28T00:19:20.904Z,5.80
2018-01-28T00:20:20.795Z,5.60
2018-01-28T00:21:20.739Z,5.40
2018-01-28T00:22:20.641Z,5.70
2018-01-28T00:23:20.568Z,5.20
2018-01-28T00:24:20.474Z,5.30
2018-01-28T00:25:20.403Z,5.50
2018-01-28T00:26:20.309Z,5.60
2018-01-28T00:27:20.263Z,5.90
2018-01-28T00:28:20.175Z,6.10
2018-01-28T00:29:20.076Z,5.70
2018-01-28T00:30:19.982Z,5.70
2018-01-28T00:31:19.928Z,5.70
2018-01-28T00:32:19.832Z,5.60
2018-01-28T00:33:19.770Z,6.30
2018-01-28T00:34:19.653Z,6.00
2018-01-28T00:35:19.623Z,6.80
2018-01-28T00:36:19.500Z,5.80
2018-01-28T00:37:19.450Z,6.40
2018-01-28T00:38:19.354Z,6.20
2018-01-28T00:39:19.268Z,6.80
2018-01-28T00:40:19.172Z,6.40
2018-01-28T00:41:19.107Z,6.60
2018-01-28T00:42:19.010Z,6.30
2018-01-28T00:43:18.963Z,6.00
2018-01-28T00:44:18.867Z,6.30
2018-01-28T00:45:18.780Z,6.40
2018-01-28T00:46:18.687Z,6.50
2018-01-28T00:47:18.642Z,6.30
2018-01-28T00:48:18.520Z,6.20
2018-01-28T00:51:00.603Z,6.60
2018-01-28T00:52:00.531Z,7.10
2018-01-28T00:53:00.471Z,6.70
2018-01-28T00:54:00.387Z,13.00
2018-01-28T00:55:00.280Z,7.30
2018-01-28T00:56:00.222Z,6.70
2018-01-28T00:57:00.115Z,7.00
2018-01-28T00:58:00.052Z,7.50
2018-01-28T00:58:59.979Z,6.90
2018-01-28T00:59:59.904Z,6.90
2018-01-28T01:00:59.790Z,7.00
2018-01-28T01:01:59.716Z,7.50
2018-01-28T01:02:59.627Z,7.60
2018-01-28T01:03:59.566Z,7.30
2018-01-28T01:04:59.569Z,7.30
2018-01-28T01:05:59.397Z,8.00
2018-01-28T01:06:59.305Z,7.30
2018-01-28T01:07:59.236Z,7.40
2018-01-28T01:08:59.145Z,7.70
2018-01-28T01:09:59.087Z,6.80
2018-01-28T01:10:58.995Z,7.60
2018-01-28T01:11:58.906Z,8.00
2018-01-28T01:12:58.813Z,7.80
2018-01-28T01:13:58.864Z,7.80
2018-01-28T01:14:58.667Z,8.70
2018-01-28T01:15:58.587Z,8.60
2018-01-28T01:16:58.492Z,9.10
2018-01-28T01:17:58.428Z,8.40
2018-01-28T01:18:58.350Z,9.10
2018-01-28T01:19:58.288Z,9.30
2018-01-28T01:20:58.169Z,10.00
2018-01-28T01:21:58.092Z,9.90
2018-01-28T01:22:58.009Z,9.60
2018-01-28T01:23:57.983Z,9.70
2018-01-28T01:24:57.863Z,9.40
2018-01-28T01:25:57.790Z,9.80
2018-01-28T01:26:57.691Z,9.80
2018-01-28T01:27:57.613Z,9.60
2018-01-28T01:28:57.526Z,9.50
2018-01-28T01:29:57.448Z,9.70
2018-01-28T01:30:57.381Z,9.20
2018-01-28T01:31:57.291Z,9.30
2018-01-28T01:32:57.195Z,9.20
2018-01-28T01:33:57.127Z,9.00
2018-01-28T01:34:57.038Z,9.40
2018-01-28T01:35:56.988Z,9.00
2018-01-28T01:36:56.911Z,9.50
2018-01-28T01:37:56.804Z,9.10
2018-01-28T01:38:56.705Z,9.50
2018-01-28T01:39:56.632Z,8.90
2018-01-28T01:40:56.565Z,8.90
2018-01-28T01:41:56.473Z,9.10
2018-01-28T01:42:56.403Z,8.40
2018-01-28T01:43:56.345Z,8.30
2018-01-28T01:44:56.223Z,8.80
2018-01-28T01:45:56.194Z,9.10
2018-01-28T01:46:56.087Z,9.30
2018-01-28T01:47:56.009Z,7.60
2018-01-28T01:48:55.910Z,7.80
2018-01-28T01:49:55.839Z,7.90
2018-01-28T01:50:55.735Z,8.40
2018-01-28T01:51:55.698Z,7.90
2018-01-28T01:52:55.660Z,7.70
2018-01-28T01:53:55.506Z,7.80
2018-01-28T01:54:55.406Z,7.60
2018-01-28T01:55:55.343Z,7.50
2018-01-28T01:56:55.298Z,7.30
2018-01-28T01:57:55.184Z,7.60
2018-01-28T01:58:55.091Z,7.10
2018-01-28T01:59:55.023Z,7.50
2018-01-28T02:00:54.928Z,7.20
2018-01-28T02:01:54.938Z,7.60
2018-01-28T02:02:54.759Z,7.60
2018-01-28T02:03:54.690Z,7.10
2018-01-28T02:04:54.602Z,7.10
2018-01-28T02:05:54.558Z,7.10
2018-01-28T02:06:54.457Z,6.50
2018-01-28T02:07:54.384Z,6.60
2018-01-28T02:08:54.279Z,6.90
2018-01-28T02:09:54.208Z,6.90
2018-01-28T02:10:54.114Z,6.80
2018-01-28T02:11:54.046Z,6.80
2018-01-28T02:12:53.978Z,6.40
2018-01-28T02:13:53.894Z,6.50
2018-01-28T02:14:53.798Z,6.20
2018-01-28T02:15:53.834Z,6.80
2018-01-28T02:16:53.629Z,6.50
2018-01-28T02:17:53.578Z,5.90
2018-01-28T02:18:53.469Z,6.50
2018-01-28T02:19:53.402Z,6.70
2018-01-28T02:20:53.316Z,6.30
2018-01-28T02:21:53.237Z,6.00
2018-01-28T02:22:53.169Z,6.60
2018-01-28T02:23:53.076Z,6.00
2018-01-28T02:24:53.028Z,6.00
2018-01-28T02:25:52.934Z,6.30
2018-01-28T02:26:52.819Z,6.40
2018-01-28T02:27:52.769Z,6.20
2018-01-28T02:28:52.677Z,6.00
2018-01-28T02:29:52.595Z,5.90
2018-01-28T02:30:52.501Z,6.20
2018-01-28T02:31:52.433Z,6.30
2018-01-28T02:32:52.340Z,6.30
2018-01-28T02:33:53.286Z,6.30
2018-01-28T02:34:52.180Z,5.90
2018-01-28T02:35:52.122Z,6.50
2018-01-28T02:36:52.023Z,6.30
2018-01-28T02:37:51.939Z,6.70
2018-01-28T02:38:51.872Z,6.70
2018-01-28T02:39:51.777Z,6.10
2018-01-28T02:40:51.690Z,6.40
2018-01-28T02:41:51.618Z,5.90
2018-01-28T02:42:51.528Z,6.00
2018-01-28T02:43:51.482Z,6.10
2018-01-28T02:44:51.383Z,6.30
2018-01-28T02:45:51.324Z,6.00
2018-01-28T02:46:51.207Z,7.00
2018-01-28T02:47:51.133Z,5.90
2018-01-28T02:48:51.048Z,6.10
2018-01-28T02:49:50.977Z,6.50
2018-01-28T02:50:50.909Z,6.20
2018-01-28T02:51:50.815Z,6.10
2018-01-28T02:52:50.721Z,6.20
2018-01-28T02:53:50.654Z,6.20
2018-01-28T02:54:50.574Z,5.90
2018-01-28T02:55:50.511Z,5.80
2018-01-28T02:56:50.418Z,6.20
2018-01-28T02:57:50.325Z,6.30
2018-01-28T02:58:50.250Z,5.70
2018-01-28T02:59:50.172Z,5.60
2018-01-28T03:00:50.076Z,6.00
2018-01-28T03:01:50.027Z,6.00
2018-01-28T03:02:49.916Z,5.90
2018-01-28T03:03:49.923Z,5.80
2018-01-28T03:04:49.760Z,5.40
2018-01-28T03:05:49.685Z,5.80
2018-01-28T03:06:49.619Z,5.80
2018-01-28T03:07:49.547Z,5.90
2018-01-28T03:08:49.434Z,5.70
2018-01-28T03:09:49.383Z,6.00
2018-01-28T03:10:49.275Z,6.20
2018-01-28T03:11:49.227Z,5.80
2018-01-28T03:12:49.116Z,5.80
2018-01-28T03:13:49.046Z,5.90
2018-01-28T03:14:49.036Z,5.60
2018-01-28T03:15:48.878Z,5.80
2018-01-28T03:16:48.817Z,6.10
2018-01-28T03:17:48.715Z,6.10
2018-01-28T03:18:48.651Z,6.30
2018-01-28T03:19:48.558Z,6.30
2018-01-28T03:20:48.482Z,6.20
2018-01-28T03:21:48.400Z,6.00
2018-01-28T03:22:48.312Z,6.10
2018-01-28T03:23:48.262Z,6.20
2018-01-28T03:24:48.154Z,6.20
2018-01-28T03:25:48.071Z,6.60
2018-01-28T03:26:47.996Z,6.30
2018-01-28T03:27:47.911Z,6.00
2018-01-28T03:28:47.836Z,6.10
2018-01-28T03:29:47.767Z,6.10
2018-01-28T03:30:47.670Z,5.90
2018-01-28T03:31:47.593Z,5.70
2018-01-28T03:32:47.514Z,5.80
2018-01-28T03:33:47.430Z,5.60
2018-01-28T03:34:47.357Z,6.00
2018-01-28T03:35:47.303Z,5.90
2018-01-28T03:36:47.176Z,5.70
2018-01-28T03:37:47.106Z,5.80
2018-01-28T03:38:47.020Z,5.90
2018-01-28T03:39:46.968Z,5.80
2018-01-28T03:40:46.858Z,5.70
2018-01-28T03:41:46.786Z,6.50
2018-01-28T03:42:46.706Z,6.20
2018-01-28T03:43:46.627Z,5.90
2018-01-28T03:44:46.548Z,5.70
2018-01-28T03:45:46.468Z,5.90
2018-01-28T03:46:46.378Z,5.90
2018-01-28T03:47:46.308Z,5.90
2018-01-28T03:48:46.252Z,6.10
2018-01-28T03:49:46.138Z,6.20
2018-01-28T03:50:46.063Z,5.90
2018-01-28T03:51:46.059Z,5.60
2018-01-28T03:52:45.896Z,5.90
2018-01-28T03:53:45.877Z,6.50
2018-01-28T03:54:45.761Z,6.00
2018-01-28T03:55:45.704Z,5.80
2018-01-28T03:56:45.580Z,6.10
2018-01-28T03:57:45.526Z,5.90
2018-01-28T03:58:45.419Z,5.70
2018-01-28T03:59:45.378Z,6.10
2018-01-28T04:00:45.269Z,5.80
2018-01-28T04:01:45.181Z,6.10
2018-01-28T04:02:45.083Z,5.90
2018-01-28T04:03:45.050Z,5.90
2018-01-28T04:04:44.926Z,5.80
2018-01-28T04:05:44.943Z,5.60
2018-01-28T04:06:44.780Z,5.50
2018-01-28T04:07:44.725Z,5.70
2018-01-28T04:08:44.607Z,5.60
2018-01-28T04:09:44.554Z,5.10
2018-01-28T04:10:44.468Z,5.50
2018-01-28T04:11:44.380Z,5.10
2018-01-28T04:12:44.282Z,5.30
2018-01-28T04:13:44.232Z,5.00
2018-01-28T04:14:44.184Z,4.80
2018-01-28T04:15:44.056Z,5.00
2018-01-28T04:16:43.980Z,4.80
2018-01-28T04:17:43.965Z,5.20
2018-01-28T04:18:43.798Z,4.80
2018-01-28T04:19:43.731Z,4.80
2018-01-28T04:20:43.649Z,5.10
2018-01-28T04:21:43.577Z,4.90
2018-01-28T04:22:43.565Z,4.90
2018-01-28T04:23:43.410Z,4.90
2018-01-28T04:24:43.323Z,5.00
2018-01-28T04:25:43.259Z,4.80
2018-01-28T04:26:43.155Z,4.40
2018-01-28T04:27:43.450Z,4.50
2018-01-28T04:28:43.005Z,4.30
2018-01-28T04:29:42.934Z,4.60
2018-01-28T04:30:42.845Z,4.60
2018-01-28T04:31:42.769Z,4.00
2018-01-28T04:32:42.692Z,4.30
2018-01-28T04:33:42.615Z,4.20
2018-01-28T04:34:42.516Z,4.30
2018-01-28T04:35:42.443Z,4.40
2018-01-28T04:36:42.372Z,4.30
2018-01-28T04:37:42.317Z,4.70
2018-01-28T04:38:42.199Z,4.50
2018-01-28T04:39:42.139Z,4.50
2018-01-28T04:40:42.044Z,4.10
2018-01-28T04:41:41.963Z,4.30
2018-01-28T04:42:41.866Z,4.40
2018-01-28T04:43:41.827Z,4.30
2018-01-28T04:44:41.707Z,4.40
2018-01-28T04:45:41.631Z,4.50
2018-01-28T04:46:41.598Z,4.40
2018-01-28T04:47:41.484Z,4.40
2018-01-28T04:48:41.410Z,4.40
2018-01-28T04:49:41.316Z,4.40
2018-01-28T04:50:41.225Z,4.50
2018-01-28T04:51:41.172Z,4.20
2018-01-28T04:52:41.079Z,4.60
2018-01-28T04:53:41.072Z,4.70
2018-01-28T04:54:40.903Z,4.80
2018-01-28T04:55:41.861Z,4.60
2018-01-28T04:56:40.743Z,4.80
2018-01-28T04:57:40.676Z,4.70
2018-01-28T04:58:40.594Z,4.70
2018-01-28T04:59:40.542Z,4.50
2018-01-28T05:00:40.418Z,4.50
2018-01-28T05:01:40.381Z,4.20
2018-01-28T05:02:40.274Z,4.80
2018-01-28T05:03:40.187Z,4.60
2018-01-28T05:04:40.115Z,4.60
2018-01-28T05:05:40.053Z,4.60
2018-01-28T05:06:39.945Z,4.30
2018-01-28T05:07:39.875Z,4.60
2018-01-28T05:08:39.783Z,4.30
2018-01-28T05:09:39.729Z,4.80
2018-01-28T05:10:39.625Z,4.00
2018-01-28T05:11:39.539Z,4.50
2018-01-28T05:12:39.461Z,4.10
2018-01-28T05:13:39.379Z,4.30
2018-01-28T05:14:39.311Z,4.20
2018-01-28T05:15:39.230Z,4.40
2018-01-28T05:16:39.194Z,4.40
2018-01-28T05:17:39.060Z,4.50
2018-01-28T05:18:38.970Z,4.40
2018-01-28T05:19:38.910Z,4.70
2018-01-28T05:20:38.810Z,4.50
2018-01-28T05:21:38.761Z,4.70
2018-01-28T05:22:38.674Z,4.30
2018-01-28T05:23:38.588Z,4.30
2018-01-28T05:24:38.493Z,4.30
2018-01-28T05:25:38.504Z,4.20
2018-01-28T05:26:38.336Z,4.30
2018-01-28T05:27:38.276Z,4.20
2018-01-28T05:28:38.173Z,4.10
2018-01-28T05:29:38.091Z,4.20
2018-01-28T05:30:38.018Z,4.40
2018-01-28T05:31:37.941Z,4.30
2018-01-28T05:32:37.876Z,3.90
2018-01-28T05:33:37.815Z,4.20
2018-01-28T05:34:37.701Z,4.30
2018-01-28T05:35:37.621Z,4.40
2018-01-28T05:36:37.522Z,4.10
2018-01-28T05:37:37.456Z,4.10
2018-01-28T05:38:37.380Z,4.30
2018-01-28T05:39:37.295Z,4.10
2018-01-28T05:40:37.213Z,4.50
2018-01-28T05:41:37.136Z,4.00
2018-01-28T05:42:37.064Z,4.00
2018-01-28T05:43:36.987Z,4.10
2018-01-28T05:44:36.883Z,4.50
2018-01-28T05:45:36.810Z,4.40
2018-01-28T05:46:36.720Z,4.10
2018-01-28T05:47:36.674Z,4.40
2018-01-28T05:48:36.597Z,4.30
2018-01-28T05:49:36.500Z,4.60
2018-01-28T05:50:36.399Z,4.50
2018-01-28T05:51:36.328Z,4.40
2018-01-28T05:52:36.254Z,4.40
2018-01-28T05:53:36.200Z,4.60
2018-01-28T05:54:36.085Z,4.50
2018-01-28T05:55:36.009Z,4.70
2018-01-28T05:56:35.921Z,5.00
2018-01-28T05:57:35.847Z,5.00
2018-01-28T05:58:35.783Z,4.70
2018-01-28T05:59:35.725Z,5.10
2018-01-28T06:00:35.594Z,4.70
2018-01-28T06:01:35.522Z,4.70
2018-01-28T06:02:35.436Z,4.90
2018-01-28T06:03:35.361Z,4.80
2018-01-28T06:04:35.382Z,4.80
2018-01-28T06:05:35.208Z,4.80
2018-01-28T06:06:35.113Z,5.10
2018-01-28T06:07:35.058Z,5.00
2018-01-28T06:08:34.956Z,5.10
2018-01-28T06:09:34.903Z,4.90
2018-01-28T06:10:34.792Z,4.90
2018-01-28T06:11:34.716Z,5.20
2018-01-28T06:12:34.636Z,5.20
2018-01-28T06:13:34.670Z,6.00
2018-01-28T06:14:34.492Z,6.00
2018-01-28T06:15:34.420Z,5.80
2018-01-28T06:16:34.313Z,6.00
2018-01-28T06:17:34.255Z,5.60
2018-01-28T06:18:34.153Z,5.80
2018-01-28T06:19:34.081Z,6.10
2018-01-28T06:20:34.017Z,6.30
2018-01-28T06:21:33.938Z,6.00
2018-01-28T06:22:33.825Z,5.90
2018-01-28T06:23:33.777Z,5.80
2018-01-28T06:24:33.663Z,6.30
2018-01-28T06:25:33.611Z,6.30
2018-01-28T06:26:33.536Z,6.10
2018-01-28T06:27:33.449Z,5.70
2018-01-28T06:28:33.348Z,6.00
2018-01-28T06:29:33.280Z,6.70
2018-01-28T06:30:33.191Z,6.10
2018-01-28T06:31:33.140Z,6.70
2018-01-28T06:32:33.045Z,6.30
2018-01-28T06:33:32.960Z,6.70
2018-01-28T06:34:32.865Z,6.60
2018-01-28T06:35:32.794Z,7.00
2018-01-28T06:36:32.783Z,6.50
2018-01-28T06:37:32.662Z,6.60
2018-01-28T06:38:32.549Z,6.50
2018-01-28T06:39:32.478Z,6.90
2018-01-28T06:40:32.384Z,6.50
2018-01-28T06:41:32.312Z,7.00
2018-01-28T06:42:32.225Z,6.60
2018-01-28T06:43:32.173Z,7.10
2018-01-28T06:44:32.064Z,7.30
2018-01-28T06:45:32.006Z,7.50
2018-01-28T06:46:31.905Z,7.80
2018-01-28T06:47:31.823Z,8.00
2018-01-28T06:48:31.764Z,7.80
2018-01-28T06:49:31.667Z,7.80
2018-01-28T06:50:31.597Z,7.80
2018-01-28T06:51:31.506Z,7.90
2018-01-28T06:52:31.425Z,8.40
2018-01-28T06:53:31.388Z,8.70
2018-01-28T06:54:31.257Z,7.90
2018-01-28T06:55:31.187Z,8.50
2018-01-28T06:56:31.098Z,9.00
2018-01-28T06:57:31.045Z,8.40
2018-01-28T06:58:30.937Z,8.10
2018-01-28T06:59:30.884Z,8.10
2018-01-28T07:00:30.786Z,8.50
2018-01-28T07:01:30.726Z,8.70
2018-01-28T07:02:30.622Z,8.20
2018-01-28T07:03:30.560Z,9.00
2018-01-28T07:04:30.458Z,8.60
2018-01-28T07:05:30.387Z,9.00
2018-01-28T07:06:30.292Z,9.00
2018-01-28T07:07:30.226Z,9.30
2018-01-28T07:08:30.207Z,9.90
2018-01-28T07:09:30.066Z,9.50
2018-01-28T07:10:29.986Z,9.90
2018-01-28T07:11:29.932Z,9.30
2018-01-28T07:12:29.813Z,9.50
2018-01-28T07:13:29.744Z,10.00
2018-01-28T07:14:29.675Z,9.50
2018-01-28T07:15:29.638Z,9.60
2018-01-28T07:16:29.491Z,10.70
2018-01-28T07:17:29.442Z,10.10
2018-01-28T07:18:29.341Z,10.00
2018-01-28T07:19:29.285Z,10.20
2018-01-28T07:20:29.169Z,10.60
2018-01-28T07:21:29.107Z,10.10
2018-01-28T07:22:29.021Z,10.20
2018-01-28T07:23:28.937Z,9.70
2018-01-28T07:24:28.904Z,10.30
2018-01-28T07:25:28.779Z,10.60
2018-01-28T07:26:28.740Z,10.30
2018-01-28T07:27:28.623Z,10.40
2018-01-28T07:28:28.536Z,10.10
2018-01-28T07:29:28.485Z,9.90
2018-01-28T07:30:28.374Z,10.10
2018-01-28T07:31:28.317Z,10.10
2018-01-28T07:32:28.210Z,10.10
2018-01-28T07:33:28.167Z,10.60
2018-01-28T07:34:28.079Z,10.90
2018-01-28T07:35:27.996Z,10.30
2018-01-28T07:36:27.894Z,11.20
2018-01-28T07:37:27.827Z,10.60
2018-01-28T07:38:27.728Z,11.20
2018-01-28T07:39:27.686Z,10.30
2018-01-28T07:40:27.579Z,11.20
2018-01-28T07:41:27.518Z,10.80
2018-01-28T07:42:27.417Z,11.40
2018-01-28T07:43:27.343Z,11.20
2018-01-28T07:44:27.262Z,11.20
2018-01-28T07:45:27.194Z,11.20
2018-01-28T07:46:27.092Z,10.60
2018-01-28T07:47:27.017Z,11.50
2018-01-28T07:48:26.921Z,11.60
2018-01-28T07:49:26.846Z,11.80
2018-01-28T07:50:26.786Z,11.40
2018-01-28T07:53:08.697Z,11.10
2018-01-28T07:54:08.656Z,12.30
2018-01-28T07:55:08.519Z,11.70
2018-01-28T07:56:08.686Z,12.00
2018-01-28T07:57:08.389Z,11.90
2018-01-28T07:58:08.291Z,12.10
2018-01-28T07:59:08.218Z,11.70
2018-01-28T08:00:08.135Z,12.40
2018-01-28T08:01:08.040Z,12.00
2018-01-28T08:02:07.994Z,12.10
2018-01-28T08:03:07.876Z,12.20
2018-01-28T08:04:07.818Z,12.20
2018-01-28T08:05:07.747Z,11.40
2018-01-28T08:06:07.666Z,11.60
2018-01-28T08:07:07.550Z,12.50
2018-01-28T08:08:07.473Z,12.50
2018-01-28T08:09:07.382Z,12.60
2018-01-28T08:10:07.330Z,12.60
2018-01-28T08:11:07.232Z,13.00
2018-01-28T08:12:07.173Z,13.10
2018-01-28T08:13:07.060Z,13.20
2018-01-28T08:14:07.013Z,13.30
2018-01-28T08:15:07.039Z,13.00
2018-01-28T08:16:06.846Z,13.20
2018-01-28T08:17:06.754Z,12.40
2018-01-28T08:18:06.674Z,13.40
2018-01-28T08:19:06.597Z,13.50
2018-01-28T08:21:48.695Z,13.00
2018-01-28T08:22:48.632Z,14.00
2018-01-28T08:23:48.514Z,13.60
2018-01-28T08:24:48.440Z,14.10
2018-01-28T08:25:48.364Z,13.90
2018-01-28T08:26:48.282Z,13.50
2018-01-28T08:27:48.187Z,14.10
2018-01-28T08:28:48.118Z,13.90
2018-01-28T08:29:48.036Z,13.40
2018-01-28T08:30:47.995Z,13.60
2018-01-28T08:31:47.881Z,13.60
2018-01-28T08:32:47.795Z,13.80
2018-01-28T08:33:47.716Z,13.60
2018-01-28T08:34:47.644Z,14.30
2018-01-28T08:35:47.579Z,13.80
2018-01-28T08:36:47.494Z,13.80
2018-01-28T08:37:47.400Z,13.70
2018-01-28T08:38:47.325Z,13.70
2018-01-28T08:39:47.230Z,14.70
2018-01-28T08:40:47.176Z,14.10
2018-01-28T08:41:47.088Z,14.20
2018-01-28T08:42:47.004Z,13.90
2018-01-28T08:43:46.917Z,14.20
2018-01-28T08:44:47.749Z,14.40
2018-01-28T08:45:46.770Z,13.90
2018-01-28T08:46:46.681Z,14.40
2018-01-28T08:47:46.605Z,14.50
2018-01-28T08:48:46.542Z,14.60
2018-01-28T08:49:46.450Z,14.40
2018-01-28T08:50:46.393Z,14.90
2018-01-28T08:51:46.280Z,14.70
2018-01-28T08:52:46.219Z,14.80
2018-01-28T08:53:46.129Z,14.90
2018-01-28T08:54:46.052Z,14.10
2018-01-28T08:55:46.009Z,14.60
2018-01-28T08:56:45.900Z,14.80
2018-01-28T08:57:45.799Z,15.30
2018-01-28T08:58:45.737Z,15.10
2018-01-28T08:59:45.651Z,15.70
2018-01-28T09:00:45.583Z,14.70
2018-01-28T09:01:45.511Z,15.10
2018-01-28T09:02:45.411Z,15.10
2018-01-28T09:03:45.313Z,16.40
2018-01-28T09:04:45.241Z,15.70
2018-01-28T09:05:45.152Z,15.50
2018-01-28T09:06:45.119Z,15.50
2018-01-28T09:07:45.025Z,15.30
2018-01-28T09:08:44.928Z,14.70
2018-01-28T09:09:44.834Z,15.20
2018-01-28T09:10:44.769Z,14.70
2018-01-28T09:11:44.675Z,15.20
2018-01-28T09:12:44.649Z,15.40
2018-01-28T09:13:44.520Z,14.80
2018-01-28T09:14:44.449Z,14.50
2018-01-28T09:15:44.370Z,15.40
2018-01-28T09:16:44.347Z,14.80
2018-01-28T09:17:44.210Z,14.80
2018-01-28T09:18:44.148Z,14.60
2018-01-28T09:19:44.061Z,15.50
2018-01-28T09:20:43.996Z,14.70
2018-01-28T09:21:43.881Z,15.10
2018-01-28T09:22:43.842Z,14.70
2018-01-28T09:23:43.719Z,15.60
2018-01-28T09:24:43.648Z,26.20
2018-01-28T09:25:43.572Z,17.10
2018-01-28T09:26:43.485Z,16.00
2018-01-28T09:27:43.420Z,16.00
2018-01-28T09:28:43.331Z,15.00
2018-01-28T09:29:43.237Z,15.50
2018-01-28T09:30:43.203Z,14.40
2018-01-28T09:31:43.082Z,15.10
2018-01-28T09:32:43.061Z,14.10
2018-01-28T09:33:42.956Z,14.20
2018-01-28T09:34:42.859Z,14.70
2018-01-28T09:35:42.764Z,14.70
2018-01-28T09:36:42.698Z,14.40
2018-01-28T09:37:42.607Z,14.70
2018-01-28T09:38:42.555Z,14.90
2018-01-28T09:39:42.451Z,14.40
2018-01-28T09:40:42.404Z,15.60
2018-01-28T09:41:43.268Z,16.10
2018-01-28T09:42:42.224Z,15.00
2018-01-28T09:43:42.145Z,14.90
2018-01-28T09:44:42.083Z,15.30
2018-01-28T09:45:41.968Z,15.40
2018-01-28T09:46:41.915Z,15.70
2018-01-28T09:47:41.818Z,15.20
2018-01-28T09:48:41.756Z,16.10
2018-01-28T09:49:41.684Z,14.80
2018-01-28T09:50:41.590Z,16.10
2018-01-28T09:51:41.501Z,14.90
2018-01-28T09:52:41.454Z,15.30
2018-01-28T09:53:41.335Z,14.70
2018-01-28T09:54:41.343Z,14.90
2018-01-28T09:55:41.225Z,14.80
2018-01-28T09:56:41.153Z,14.60
2018-01-28T09:57:41.027Z,15.40
2018-01-28T09:58:41.078Z,14.30
2018-01-28T09:59:40.856Z,15.40
2018-01-28T10:00:40.940Z,15.00
2018-01-28T10:01:40.700Z,15.70
2018-01-28T10:02:40.681Z,14.80
2018-01-28T10:03:40.576Z,14.50
2018-01-28T10:04:40.593Z,15.20
2018-01-28T10:05:40.389Z,15.00
2018-01-28T10:06:40.394Z,14.10
2018-01-28T10:07:40.239Z,15.20
2018-01-28T10:08:40.203Z,14.90
2018-01-28T10:09:40.052Z,14.50
2018-01-28T10:10:40.013Z,15.30
2018-01-28T10:11:39.930Z,15.20
2018-01-28T10:12:39.961Z,14.90
2018-01-28T10:13:39.750Z,14.30
2018-01-28T10:14:39.730Z,14.70
2018-01-28T10:15:39.598Z,15.00
2018-01-28T10:16:39.539Z,14.20
2018-01-28T10:17:39.439Z,14.40
2018-01-28T10:18:39.455Z,15.40
2018-01-28T10:19:39.272Z,15.10
2018-01-28T10:20:39.271Z,15.10
2018-01-28T10:21:39.123Z,14.60
2018-01-28T10:22:39.143Z,14.00
2018-01-28T10:23:39.058Z,14.80
2018-01-28T10:24:38.980Z,14.40
2018-01-28T10:25:38.785Z,14.40
2018-01-28T10:26:38.790Z,14.40
2018-01-28T10:27:38.824Z,14.80
2018-01-28T10:28:38.593Z,14.80
2018-01-28T10:29:38.632Z,14.30
2018-01-28T10:30:38.516Z,14.90
2018-01-28T10:31:38.592Z,15.00
2018-01-28T10:32:38.245Z,15.30
2018-01-28T10:33:38.257Z,15.40
2018-01-28T10:34:38.077Z,15.30
2018-01-28T10:35:38.027Z,15.60
2018-01-28T10:36:37.911Z,14.20
2018-01-28T10:37:37.936Z,15.40
2018-01-28T10:38:37.787Z,15.10
2018-01-28T10:39:37.787Z,15.10
2018-01-28T10:40:37.594Z,14.50
2018-01-28T10:41:37.571Z,14.60
2018-01-28T10:42:37.433Z,14.70
2018-01-28T10:43:37.491Z,14.20
2018-01-28T10:44:37.285Z,14.80
2018-01-28T10:45:37.273Z,15.70
2018-01-28T10:46:37.117Z,14.60
2018-01-28T10:47:37.774Z,15.10
2018-01-28T10:48:36.996Z,14.60
2018-01-28T10:49:37.207Z,14.20
2018-01-28T10:50:36.859Z,14.90
2018-01-28T10:53:18.707Z,14.80
2018-01-28T10:54:18.726Z,14.90
2018-01-28T10:55:18.539Z,14.90
2018-01-28T10:56:18.517Z,14.60
2018-01-28T10:57:18.382Z,16.00
2018-01-28T10:58:18.426Z,15.20
2018-01-28T10:59:18.365Z,15.10
2018-01-28T11:00:18.417Z,14.50
2018-01-28T11:01:18.070Z,14.80
2018-01-28T11:02:18.037Z,14.90
2018-01-28T11:03:17.917Z,14.40
2018-01-28T11:04:17.971Z,15.10
2018-01-28T11:05:17.759Z,14.60
2018-01-28T11:06:17.765Z,14.40
2018-01-28T11:07:17.593Z,13.70
2018-01-28T11:08:17.570Z,14.40
2018-01-28T11:09:17.455Z,14.20
2018-01-28T11:10:17.397Z,14.20
2018-01-28T11:11:17.302Z,13.10
2018-01-28T11:12:17.637Z,13.20
2018-01-28T11:13:17.112Z,13.40
2018-01-28T11:14:17.095Z,13.90
2018-01-28T11:15:16.977Z,13.50
2018-01-28T11:16:17.003Z,13.30
2018-01-28T11:17:16.980Z,13.10
2018-01-28T11:18:16.816Z,12.90
2018-01-28T11:19:16.653Z,13.10
2018-01-28T11:20:16.768Z,13.10
2018-01-28T11:21:16.501Z,13.00
2018-01-28T11:22:16.541Z,12.30
2018-01-28T11:23:16.336Z,12.60
2018-01-28T11:25:58.273Z,12.50
2018-01-28T11:26:58.288Z,12.50
2018-01-28T11:27:58.088Z,12.60
2018-01-28T11:28:57.975Z,12.30
2018-01-28T11:29:57.902Z,12.40
2018-01-28T11:30:57.818Z,11.90
2018-01-28T11:31:57.942Z,12.30
2018-01-28T11:32:57.654Z,12.50
2018-01-28T11:33:57.573Z,12.10
2018-01-28T11:34:57.506Z,11.50
2018-01-28T11:35:57.416Z,11.80
2018-01-28T11:36:57.413Z,11.90
2018-01-28T11:37:57.265Z,12.40
2018-01-28T11:38:57.190Z,12.80
2018-01-28T11:39:57.094Z,12.80
2018-01-28T11:40:57.040Z,11.80
2018-01-28T11:41:56.957Z,15.60
2018-01-28T11:42:56.891Z,12.80
2018-01-28T11:43:56.795Z,14.90
2018-01-28T11:44:56.753Z,12.00
2018-01-28T11:45:56.662Z,14.50
2018-01-28T11:46:56.570Z,15.30
2018-01-28T11:47:56.691Z,13.30
2018-01-28T11:48:56.419Z,12.30
2018-01-28T11:49:56.380Z,13.70
2018-01-28T11:50:56.244Z,14.70
2018-01-28T11:51:56.165Z,13.20
2018-01-28T11:52:56.286Z,12.10
2018-01-28T11:53:56.223Z,12.40
2018-01-28T11:54:56.138Z,11.90
2018-01-28T11:55:55.863Z,12.60
2018-01-28T11:56:55.782Z,11.80
2018-01-28T11:57:55.684Z,10.80
2018-01-28T11:58:55.647Z,11.20
2018-01-28T11:59:55.528Z,12.20
2018-01-28T12:00:55.449Z,11.90
2018-01-28T12:01:55.405Z,11.40
2018-01-28T12:02:55.291Z,13.30
2018-01-28T12:03:55.227Z,11.90
2018-01-28T12:04:55.140Z,12.00
2018-01-28T12:05:55.046Z,11.90
2018-01-28T12:06:54.976Z,11.30
2018-01-28T12:07:54.888Z,10.80
2018-01-28T12:08:55.840Z,11.10
2018-01-28T12:09:54.724Z,11.20
2018-01-28T12:10:54.734Z,10.30
2018-01-28T12:11:54.587Z,10.30
2018-01-28T12:12:54.510Z,10.50
2018-01-28T12:13:54.440Z,10.40
2018-01-28T12:14:54.346Z,9.70
2018-01-28T12:15:54.276Z,9.60
2018-01-28T12:16:54.194Z,10.30
2018-01-28T12:17:54.110Z,11.10
2018-01-28T12:18:54.056Z,10.50
2018-01-28T12:19:53.970Z,9.60
2018-01-28T12:20:53.896Z,10.10
2018-01-28T12:21:53.795Z,9.90
2018-01-28T12:22:53.718Z,9.80
2018-01-28T12:23:53.656Z,9.90
2018-01-28T12:24:53.579Z,10.10
2018-01-28T12:25:53.479Z,9.90
2018-01-28T12:26:53.405Z,10.10
2018-01-28T12:27:53.318Z,9.70
2018-01-28T12:28:53.265Z,9.50
2018-01-28T12:29:53.156Z,10.00
2018-01-28T12:30:53.104Z,9.60
2018-01-28T12:31:53.007Z,9.50
2018-01-28T12:32:52.931Z,10.30
2018-01-28T12:33:52.854Z,9.00
2018-01-28T12:34:52.839Z,9.60
2018-01-28T12:35:52.702Z,9.90
2018-01-28T12:36:52.670Z,9.40
2018-01-28T12:37:52.522Z,9.40
2018-01-28T12:38:52.565Z,9.10
2018-01-28T12:39:52.379Z,9.90
2018-01-28T12:40:52.402Z,9.70
2018-01-28T12:41:52.240Z,9.30
2018-01-28T12:42:52.286Z,9.40
2018-01-28T12:43:52.053Z,9.60
2018-01-28T12:44:52.096Z,9.70
2018-01-28T12:45:51.928Z,9.50
2018-01-28T12:46:51.901Z,9.40
2018-01-28T12:47:51.730Z,8.50
2018-01-28T12:48:51.796Z,10.10
2018-01-28T12:49:51.624Z,9.10
2018-01-28T12:50:51.625Z,9.70
2018-01-28T12:51:51.560Z,9.00
2018-01-28T12:52:51.421Z,9.10
2018-01-28T12:53:51.262Z,8.70
2018-01-28T12:54:51.225Z,9.00
2018-01-28T12:55:51.109Z,8.90
2018-01-28T12:56:51.184Z,8.50
2018-01-28T12:57:50.952Z,8.30
2018-01-28T12:58:50.945Z,8.40
2018-01-28T12:59:50.798Z,8.40
2018-01-28T13:00:50.817Z,7.80
2018-01-28T13:01:50.666Z,8.10
2018-01-28T13:02:50.698Z,7.40
2018-01-28T13:03:50.481Z,7.80
2018-01-28T13:04:50.473Z,7.50
2018-01-28T13:05:50.319Z,8.00
2018-01-28T13:06:50.293Z,7.90
2018-01-28T13:07:50.177Z,8.10
2018-01-28T13:08:50.196Z,7.70
2018-01-28T13:09:50.008Z,7.90
2018-01-28T13:10:49.929Z,7.70
2018-01-28T13:11:49.870Z,7.40
2018-01-28T13:12:49.798Z,7.70
2018-01-28T13:13:49.684Z,7.30
2018-01-28T13:14:49.620Z,7.00
2018-01-28T13:15:49.536Z,6.90